SondeTracker

Meteorological Radiosondes Database

Operations
Statistics for the Launch Site: Rosamond [CA] (USA)

144

0

35736.00 m / 27027.66 m / 26142.00 m

5.09 m/s / 5.17 m/s

17.25 m/s / 13.99 m/s

0

0

0

Radiosondes Table with Launch Site: Rosamond [CA] (USA) (144)
Number Type Last Frame [UTC] φ λ Course Speed Altitude Climbing Frequency Nearest City Distance from QTH Status
T2440776 RS41 2021-12-02 04:13:29 34.3792 -117.868 286 ° 22 km/h 2568 m -13.1 m/s 403.000 MHz Sun Village [CA] (US) 0.00 km UNKNOWN
LMS6BA9B7 LMS6 2021-11-19 17:34:00 35.0014 -116.204 76 ° 85 km/h 7943 m -4.9 m/s 401.014 MHz Barstow [CA] (US) 0.00 km UNKNOWN
T2520311 RS41 2021-11-19 06:50:00 34.2998 -116.155 68 ° 20 km/h 3538 m -14.6 m/s 403.000 MHz Twentynine Palms [CA] (US) 0.00 km UNKNOWN
LMS6BA09B LMS6 2021-11-18 20:48:30 34.7108 -116.528 54 ° 43 km/h 4766 m -4.0 m/s 400.258 MHz Barstow [CA] (US) 0.00 km UNKNOWN
T2440798 RS41 2021-11-18 04:21:00 33.919 -116.549 152 ° 15 km/h 273 m -13.0 m/s 403.000 MHz Desert Hot Springs [CA] (US) 0.00 km UNKNOWN
T2350452 RS41 2021-11-17 05:20:30 33.8181 -115.913 170 ° 33 km/h 1609 m -7.9 m/s 403.000 MHz Coachella [CA] (US) 0.00 km UNKNOWN
LMS6BCD5F LMS6 2021-11-17 00:33:30 34.2923 -116.453 108 ° 41 km/h 2467 m -4.1 m/s 401.011 MHz Yucca Valley [CA] (US) 0.00 km UNKNOWN
LMS6B400C LMS6 2021-11-16 20:51:30 34.4997 -116.27 108 ° 39 km/h 4498 m -3.4 m/s 400.264 MHz Twentynine Palms [CA] (US) 0.00 km UNKNOWN
LMS6BCD77 LMS6 2021-11-11 02:55:30 33.9969 -116.869 164 ° 52 km/h 3399 m -3.6 m/s 400.260 MHz Banning [CA] (US) 0.00 km UNKNOWN
LMS6B9A0B LMS6 2021-11-10 21:56:30 34.0141 -116.817 139 ° 11 km/h 2590 m -3.0 m/s 400.261 MHz Banning [CA] (US) 0.00 km UNKNOWN
LMS6BCE13 LMS6 2021-11-10 16:08:30 33.9616 -116.821 173 ° 46 km/h 2763 m -2.5 m/s 400.259 MHz Banning [CA] (US) 0.00 km UNKNOWN
LMS6BD981 LMS6 2021-11-09 19:58:00 34.4661 -116.52 102 ° 85 km/h 4901 m -8.7 m/s 401.012 MHz Big Bear City [CA] (US) 0.00 km UNKNOWN
LMS6BDE03 LMS6 2021-11-09 18:13:00 34.4641 -116.205 98 ° 46 km/h 4135 m -4.0 m/s 400.261 MHz Twentynine Palms [CA] (US) 0.00 km UNKNOWN
LMS6B9AE3 LMS6 2021-11-08 21:01:00 35.1307 -116.374 75 ° 93 km/h 9105 m -8.0 m/s 400.260 MHz Barstow [CA] (US) 0.00 km UNKNOWN
LMS6BDA49 LMS6 2021-11-05 20:00:00 35.191 -116.819 60 ° 54 km/h 11019 m -4.7 m/s 400.266 MHz Barstow [CA] (US) 0.00 km UNKNOWN
T2440783 RS41 2021-11-04 04:10:30 34.1142 -116.888 82 ° 50 km/h 7445 m -21.2 m/s 403.000 MHz Yucaipa [CA] (US) 0.00 km UNKNOWN
T2440789 RS41-SGP 2021-10-30 04:32:30 34.4081 -116.953 81 ° 54 km/h 10853 m -14.0 m/s 403.000 MHz Big Bear City [CA] (US) 0.00 km UNKNOWN
T2440791 RS41 2021-10-29 04:24:00 34.3767 -117.355 7 ° 17 km/h 10011 m -26.7 m/s 403.000 MHz Hesperia [CA] (US) 0.00 km UNKNOWN
T2440787 RS41 2021-10-28 04:33:00 34.0901 -117.313 229 ° 20 km/h 3503 m -15.3 m/s 403.000 MHz Colton [CA] (US) 0.00 km UNKNOWN
N0550981 RS41 2021-10-13 22:43:00 34.5495 -116.263 109 ° 67 km/h 4619 m -3.8 m/s 405.301 MHz Twentynine Palms [CA] (US) 0.00 km UNKNOWN
LMS6B7DAE LMS6 2021-10-13 14:56:00 34.373 -116.522 182 ° 2 km/h 2360 m -2.6 m/s 400.261 MHz Big Bear City [CA] (US) 0.00 km UNKNOWN
N0710131 RS41 2021-10-07 19:02:30 35.5956 -116.769 51 ° 167 km/h 8921 m -11.5 m/s 405.301 MHz Ridgecrest [CA] (US) 0.00 km UNKNOWN
T2440788 RS41-SGP 2021-10-02 05:10:00 34.384 -117.264 102 ° 19 km/h 5634 m -11.3 m/s 403.000 MHz Hesperia [CA] (US) 0.00 km UNKNOWN
T2040692 RS41 2021-09-29 21:05:30 34.974 -117.344 169 ° 143 km/h 8914 m -19.8 m/s 405.001 MHz Barstow [CA] (US) 0.00 km UNKNOWN
T2440784 RS41 2021-09-29 05:21:00 34.2762 -116.794 95 ° 37 km/h 3479 m -17.7 m/s 403.000 MHz Big Bear City [CA] (US) 0.00 km UNKNOWN
T1910189 RS41 2021-09-23 16:04:00 35.213 -117.817 185 ° 61 km/h 12770 m -11.5 m/s 405.001 MHz California City [CA] (US) 0.00 km UNKNOWN
T2440780 RS41-SGP 2021-09-23 05:13:30 34.2118 -117.519 136 ° 44 km/h 10748 m -13.3 m/s 403.001 MHz Rancho Cucamonga [CA] (US) 0.00 km UNKNOWN
LMS6BA92C LMS6 2021-09-16 16:49:30 35.2054 -117.394 51 ° 69 km/h 14965 m -13.8 m/s 400.261 MHz California City [CA] (US) 0.00 km UNKNOWN
T2410665 RS41 2021-09-15 05:21:00 34.165 -117.44 117 ° 57 km/h 10409 m -14.5 m/s 403.001 MHz Rialto [CA] (US) 0.00 km UNKNOWN
LMS6BA89D LMS6 2021-09-14 23:20:00 34.8071 -117.327 81 ° 59 km/h 7964 m -5.1 m/s 401.010 MHz Barstow [CA] (US) 0.00 km UNKNOWN
LMS6BB3E4 LMS6 2021-09-14 16:42:30 34.7967 -117.1 75 ° 80 km/h 7162 m -4.2 m/s 400.261 MHz Barstow [CA] (US) 0.00 km UNKNOWN
T2410658 RS41 2021-09-14 05:35:00 34.3179 -117.322 87 ° 39 km/h 5740 m -17.3 m/s 403.001 MHz Hesperia [CA] (US) 0.00 km UNKNOWN
T2410656 RS41-SGP 2021-09-10 05:29:30 34.6786 -117.819 16 ° 46 km/h 10988 m -13.9 m/s 403.001 MHz Lake Los Angeles [CA] (US) 0.00 km UNKNOWN
T2440775 RS41-SGP 2021-09-08 05:23:30 34.4562 -118.139 260 ° 24 km/h 25921 m -46.7 m/s 403.001 MHz Palmdale [CA] (US) 0.00 km UNKNOWN
T2410664 RS41-SGP 2021-09-04 05:51:00 34.6889 -117.628 78 ° 70 km/h 8571 m -9.9 m/s 403.001 MHz Lake Los Angeles [CA] (US) 0.00 km UNKNOWN
S4540172 RS41 2021-09-03 05:37:30 34.7833 -117.684 39 ° 113 km/h 10576 m -23.1 m/s 403.001 MHz Lake Los Angeles [CA] (US) 0.00 km UNKNOWN
S4530367 RS41 2021-09-02 05:42:00 34.5996 -117.741 57 ° 56 km/h 9664 m -22.2 m/s 403.001 MHz Lake Los Angeles [CA] (US) 0.00 km UNKNOWN
S4540637 RS41 2021-08-03 06:19:30 34.5515 -117.973 291 ° 28 km/h 20150 m -59.8 m/s 403.001 MHz Sun Village [CA] (US) 0.00 km UNKNOWN
S4540169 RS41-SGP 2021-07-16 07:26:00 34.5026 -118.05 309 ° 7 km/h 16066 m -12.1 m/s 403.001 MHz Sun Village [CA] (US) 0.00 km UNKNOWN
LMS6BB47D LMS6 2021-07-14 18:05:00 34.9732 -117.883 106 ° 26 km/h 13817 m -6.2 m/s 400.261 MHz California City [CA] (US) 0.00 km UNKNOWN
S4530378 RS41-SGP 2021-07-10 06:48:30 34.4934 -118.465 270 ° 37 km/h 24213 m -14.1 m/s 403.001 MHz Santa Clarita [CA] (US) 0.00 km UNKNOWN
LMS6B9224 LMS6 2021-07-09 14:32:30 35.1418 -117.908 62 ° 80 km/h 13409 m -7.2 m/s 400.261 MHz California City [CA] (US) 0.00 km UNKNOWN
S4540101 RS41-SGP 2021-07-09 06:41:00 34.6154 -118.176 359 ° 41 km/h 16212 m -31.5 m/s 403.001 MHz Quartz Hill [CA] (US) 0.00 km UNKNOWN
S4540103 RS41 2021-07-08 06:43:00 34.5933 -118.168 36 ° 28 km/h 16706 m -32.4 m/s 403.001 MHz Palmdale [CA] (US) 0.00 km UNKNOWN
LMS6BBAD5 LMS6 2021-07-07 16:28:00 35.1929 -117.898 5 ° 37 km/h 13821 m -6.9 m/s 400.261 MHz California City [CA] (US) 0.00 km UNKNOWN
S4540097 RS41 2021-07-07 07:02:30 34.549 -118.044 263 ° 87 km/h 32236 m 5.5 m/s 405.000 MHz Palmdale [CA] (US) 0.00 km UNKNOWN
LMS6BC179 LMS6 2021-06-15 14:27:00 35.4766 -117.559 25 ° 72 km/h 13430 m -5.1 m/s 400.265 MHz Ridgecrest [CA] (US) 0.00 km UNKNOWN
S4540108 RS41 2021-06-12 06:41:30 34.6604 -117.482 48 ° 65 km/h 9594 m -23.3 m/s 403.001 MHz Adelanto [CA] (US) 0.00 km UNKNOWN
LMS6BC035 LMS6 2021-06-11 15:08:00 35.2052 -117.226 31 ° 30 km/h 9200 m -5.3 m/s 400.262 MHz Barstow [CA] (US) 0.00 km UNKNOWN
S4540105 RS41-SGP 2021-06-11 06:51:30 34.7244 -117.081 67 ° 59 km/h 6541 m -14.5 m/s 403.001 MHz Barstow [CA] (US) 0.00 km UNKNOWN
S4530368 RS41 2021-06-10 06:52:30 35.2876 -116.917 42 ° 156 km/h 9438 m -11.4 m/s 403.001 MHz Barstow [CA] (US) 0.00 km UNKNOWN
S4540171 RS41-SGP 2021-06-09 06:37:00 35.0459 -117.273 49 ° 193 km/h 11302 m -29.5 m/s 403.001 MHz Barstow [CA] (US) 0.00 km UNKNOWN
LMS6BBFB7 LMS6 2021-06-08 15:54:30 35.439 -117.192 82 ° 72 km/h 15251 m -7.7 m/s 401.011 MHz Ridgecrest [CA] (US) 0.00 km UNKNOWN
S4540100 RS41 2021-06-04 06:53:30 34.4421 -117.953 262 ° 22 km/h 19504 m -25.8 m/s 403.001 MHz Sun Village [CA] (US) 0.00 km UNKNOWN
LMS6BC019 LMS6 2021-05-25 16:41:30 35.0804 -116.812 71 ° 85 km/h 8176 m -5.7 m/s 400.261 MHz Barstow [CA] (US) 0.00 km UNKNOWN
LMS6BBB6B LMS6 2021-05-24 23:11:30 34.8612 -117.482 110 ° 98 km/h 12416 m -15.1 m/s 400.261 MHz Adelanto [CA] (US) 0.00 km UNKNOWN
S4540104 RS41 2021-05-12 06:34:00 34.2092 -117.225 113 ° 28 km/h 6199 m -12.5 m/s 403.001 MHz San Bernardino [CA] (US) 0.00 km UNKNOWN
LMS6B8F7C LMS6 2021-05-12 02:11:00 34.6963 -117.2 114 ° 44 km/h 6832 m -5.7 m/s 400.264 MHz Apple Valley [CA] (US) 0.00 km UNKNOWN
LMS6BC04C LMS6 2021-05-11 22:06:30 34.8214 -117.429 96 ° 43 km/h 17631 m -15.5 m/s 400.261 MHz Adelanto [CA] (US) 0.00 km UNKNOWN
S4540106 RS41-SGP 2021-05-07 06:18:00 34.6704 -117.341 48 ° 43 km/h 8160 m -12.7 m/s 403.001 MHz Adelanto [CA] (US) 0.00 km UNKNOWN
S4530375 RS41-SGP 2021-05-06 06:17:00 34.5915 -117.599 9 ° 26 km/h 8461 m -18.0 m/s 403.001 MHz Adelanto [CA] (US) 0.00 km UNKNOWN
S4540112 RS41-SGP 2021-05-05 06:19:30 34.3536 -117.436 221 ° 2 km/h 7778 m -16.6 m/s 403.001 MHz Oak Hills [CA] (US) 0.00 km UNKNOWN
LMS6BBF9F LMS6 2021-05-04 23:40:00 34.8727 -117.305 116 ° 43 km/h 8427 m -4.3 m/s 400.259 MHz Barstow [CA] (US) 0.00 km UNKNOWN
LMS6BC076 LMS6 2021-05-04 19:32:30 34.8669 -117.581 262 ° 30 km/h 28709 m -36.5 m/s 400.260 MHz Adelanto [CA] (US) 0.00 km UNKNOWN
S4530949 RS41 2021-05-04 08:16:00 34.1195 -117.218 145 ° 56 km/h 6212 m -12.8 m/s 403.000 MHz Highland [CA] (US) 0.00 km UNKNOWN
LMS6BC138 LMS6 2021-05-03 17:43:00 33.9768 -117.21 162 ° 94 km/h 6890 m -5.2 m/s 400.261 MHz Moreno Valley [CA] (US) 0.00 km UNKNOWN
LMS6B96F0 LMS6 2021-04-30 18:30:30 34.7703 -117.629 115 ° 50 km/h 10775 m -6.0 m/s 401.011 MHz Lake Los Angeles [CA] (US) 0.00 km UNKNOWN
LMS6B9E34 LMS6 2021-04-30 15:51:30 34.8038 -117.636 143 ° 48 km/h 11938 m -4.8 m/s 400.257 MHz Lake Los Angeles [CA] (US) 0.00 km UNKNOWN
T1110947 RS41 2021-04-28 15:59:00 34.8447 -117.757 167 ° 131 km/h 11986 m -29.3 m/s 405.000 MHz Lake Los Angeles [CA] (US) 0.00 km UNKNOWN
LMS6BC041 LMS6 2021-04-20 21:28:00 34.9862 -117.105 170 ° 15 km/h 20989 m -22.2 m/s 401.014 MHz Barstow [CA] (US) 0.00 km UNKNOWN
LMS6BBAE4 LMS6 2021-04-20 19:36:30 34.9642 -117.081 193 ° 26 km/h 21207 m -22.7 m/s 400.258 MHz Barstow [CA] (US) 0.00 km UNKNOWN
LMS6BAD8F LMS6 2021-04-20 02:37:00 34.1537 -116.744 153 ° 65 km/h 10166 m -1.7 m/s 403.262 MHz Big Bear City [CA] (US) 0.00 km UNKNOWN
LMS6BC34A LMS6 2021-04-19 15:20:30 34.3275 -116.976 162 ° 52 km/h 4800 m -2.7 m/s 400.264 MHz Big Bear City [CA] (US) 0.00 km UNKNOWN
LMS6BC42D LMS6 2021-04-15 16:33:30 34.7802 -116.091 92 ° 146 km/h 6398 m -6.3 m/s 401.015 MHz Twentynine Palms [CA] (US) 0.00 km UNKNOWN
S4530376 RS41 2021-04-13 05:48:30 34.37 -116.646 323 ° 20 km/h 2679 m -6.5 m/s 402.000 MHz Big Bear City [CA] (US) 0.00 km UNKNOWN
S4540144 RS41 2021-04-07 05:53:30 34.308 -116.403 95 ° 20 km/h 2738 m -12.2 m/s 403.000 MHz Yucca Valley [CA] (US) 0.00 km UNKNOWN
LMS6B8922 LMS6 2021-04-05 21:16:30 34.8694 -116.596 79 ° 115 km/h 16144 m -7.6 m/s 401.012 MHz Barstow [CA] (US) 0.00 km UNKNOWN
LMS6BCC58 LMS6 2021-04-02 14:34:30 34.8765 -117.412 65 ° 94 km/h 14024 m -6.7 m/s 400.257 MHz Adelanto [CA] (US) 0.00 km UNKNOWN
LMS6BA919 LMS6 2021-03-24 21:40:00 33.9065 -117.01 153 ° 94 km/h 6865 m -4.6 m/s 400.270 MHz Beaumont [CA] (US) 0.00 km UNKNOWN
R1620649 RS41-SG 2021-03-24 15:40:30 34.4737 -117.439 173 ° 157 km/h 7267 m -16.3 m/s 405.000 MHz Phelan [CA] (US) 0.00 km UNKNOWN
LMS6B8573 LMS6 2021-03-23 15:16:30 34.0588 -115.993 134 ° 57 km/h 2421 m -3.5 m/s 400.259 MHz Twentynine Palms [CA] (US) 0.00 km UNKNOWN
LMS6BAF78 LMS6 2021-03-22 22:25:30 34.3736 -116.32 109 ° 48 km/h 3326 m -3.8 m/s 400.261 MHz Yucca Valley [CA] (US) 0.00 km UNKNOWN
LMS6B2A8C LMS6 2021-03-22 19:32:30 34.3175 -116.349 134 ° 35 km/h 2847 m -2.5 m/s 400.262 MHz Yucca Valley [CA] (US) 0.00 km UNKNOWN
R1610688 RS41-SG 2021-03-19 22:46:30 34.5368 -117.847 66 ° 107 km/h 8896 m -11.5 m/s 401.750 MHz Lake Los Angeles [CA] (US) 0.00 km UNKNOWN
S4540143 RS41 2021-03-19 06:01:30 34.742 -116.338 86 ° 37 km/h 5248 m -6.0 m/s 402.001 MHz Barstow [CA] (US) 0.00 km UNKNOWN
LMS6BC1BA LMS6 2021-03-18 17:02:30 35.3624 -116.668 75 ° 59 km/h 7934 m -4.6 m/s 400.266 MHz Barstow [CA] (US) 0.00 km UNKNOWN
S4530373 RS41 2021-03-18 07:00:30 34.8188 -116.287 66 ° 46 km/h 6257 m -15.6 m/s 403.000 MHz Barstow [CA] (US) 0.00 km UNKNOWN
LMS6B421C LMS6 2021-03-17 22:05:30 35.2417 -116.604 64 ° 46 km/h 7412 m -3.6 m/s 400.265 MHz Barstow [CA] (US) 0.00 km UNKNOWN
LMS6BC327 LMS6 2021-03-17 18:57:30 35.077 -117.074 78 ° 67 km/h 29805 m -52.0 m/s 400.266 MHz Barstow [CA] (US) 0.00 km UNKNOWN
LMS6B991B LMS6 2021-03-16 22:25:30 34.1695 -116.492 357 ° 13 km/h 1810 m -3.7 m/s 401.011 MHz Yucca Valley [CA] (US) 0.00 km UNKNOWN
LMS6B8EDA LMS6 2021-03-16 20:11:00 34.1296 -116.573 337 ° 6 km/h 1571 m -3.3 m/s 400.267 MHz Yucca Valley [CA] (US) 0.00 km UNKNOWN
LMS6BA83E LMS6 2021-03-12 20:30:00 35.0312 -117.544 93 ° 54 km/h 29708 m -38.9 m/s 401.010 MHz California City [CA] (US) 0.00 km UNKNOWN
LMS6BB99D LMS6 2021-03-12 17:42:00 35.1103 -117.482 58 ° 70 km/h 12737 m -8.6 m/s 400.264 MHz California City [CA] (US) 0.00 km UNKNOWN
D20037918 DFM17 2021-03-12 01:37:00 34.9943 -116.967 39 ° 22 km/h 6161 m -6.0 m/s 405.010 MHz Barstow [CA] (US) 0.00 km UNKNOWN
D20038460 DFM17 2021-03-12 00:24:00 34.8551 -117.155 42 ° 126 km/h 7660 m -19.2 m/s 403.010 MHz Barstow [CA] (US) 0.00 km UNKNOWN
D20037627 DFM17 2021-03-11 22:49:30 34.8349 -117.196 47 ° 122 km/h 7910 m -10.3 m/s 401.010 MHz Barstow [CA] (US) 0.00 km UNKNOWN
LMS6BBF7B LMS6 2021-03-11 19:36:30 35.3815 -117.174 43 ° 87 km/h 18043 m -10.3 m/s 401.010 MHz Ridgecrest [CA] (US) 0.00 km UNKNOWN
D20038382 DFM17 2021-03-11 07:53:00 35.0788 -116.312 59 ° 198 km/h 7628 m -5.0 m/s 401.010 MHz Barstow [CA] (US) 0.00 km UNKNOWN
S4540114 RS41 2021-03-09 06:54:30 34.9084 -116.157 51 ° 98 km/h 6870 m -6.3 m/s 403.001 MHz Barstow [CA] (US) 0.00 km UNKNOWN
LMS6CA8CD LMS6 2021-03-05 01:25:00 35.1511 -117.919 64 ° 46 km/h 20465 m -20.5 m/s 402.515 MHz California City [CA] (US) 0.00 km UNKNOWN
D20037586 DFM17 2021-03-03 21:25:00 35.1208 -117.234 8 ° 89 km/h 8944 m -4.9 m/s 403.010 MHz Barstow [CA] (US) 0.00 km UNKNOWN
D20038415 DFM17 2021-03-03 04:59:30 35.2161 -117.067 40 ° 104 km/h 9095 m -8.0 m/s 403.011 MHz Barstow [CA] (US) 0.00 km UNKNOWN
LMS6BFFFB LMS6 2021-02-26 22:45:30 34.9153 -116.364 111 ° 81 km/h 6675 m -7.9 m/s 401.016 MHz Barstow [CA] (US) 0.00 km UNKNOWN
LMS6BA86E LMS6 2021-02-26 20:41:00 34.8924 -116.494 130 ° 63 km/h 5934 m -4.6 m/s 400.259 MHz Barstow [CA] (US) 0.00 km UNKNOWN
LMS6B2368 LMS6 2021-02-26 16:37:00 34.7791 -116.707 124 ° 24 km/h 5228 m -4.6 m/s 400.264 MHz Barstow [CA] (US) 0.00 km UNKNOWN
LMS6C0034 LMS6 2021-02-26 02:20:00 34.8172 -116.797 121 ° 46 km/h 4819 m -4.3 m/s 400.258 MHz Barstow [CA] (US) 0.00 km UNKNOWN
LMS6CA86A LMS6 2021-02-20 00:40:00 34.7295 -116.772 105 ° 33 km/h 23221 m -27.2 m/s 402.513 MHz Barstow [CA] (US) 0.00 km UNKNOWN
S4530374 RS41 2021-02-11 06:23:30 33.7536 -116.964 188 ° 80 km/h 5737 m -19.6 m/s 403.000 MHz East Hemet [CA] (US) 0.00 km UNKNOWN
LMS6BC127 LMS6 2021-02-11 01:26:30 34.1533 -117.072 158 ° 54 km/h 4006 m -3.9 m/s 403.259 MHz Highland [CA] (US) 0.00 km UNKNOWN
LMS6BBF6C LMS6 2021-02-10 20:50:30 34.4507 -116.91 139 ° 50 km/h 4750 m -3.7 m/s 400.259 MHz Big Bear City [CA] (US) 0.00 km UNKNOWN
LMS6B2860 LMS6 2021-02-10 17:12:30 34.5229 -116.93 139 ° 54 km/h 4889 m -4.1 m/s 400.263 MHz Apple Valley [CA] (US) 0.00 km UNKNOWN
S2450501 RS41 2021-02-09 05:09:00 34.1244 -116.733 107 ° 22 km/h 2501 m -11.9 m/s 403.000 MHz Big Bear City [CA] (US) 0.00 km UNKNOWN
LMS6BFFB5 LMS6 2021-02-08 22:08:00 34.4444 -116.513 73 ° 37 km/h 2825 m -3.2 m/s 400.261 MHz Big Bear City [CA] (US) 0.00 km UNKNOWN
LMS6B995A LMS6 2021-02-08 17:29:30 34.2925 -116.659 82 ° 35 km/h 2443 m -3.6 m/s 400.258 MHz Big Bear City [CA] (US) 0.00 km UNKNOWN
S4540110 RS41 2021-02-07 04:46:30 33.9145 -117.239 133 ° 43 km/h 6829 m -19.5 m/s 403.000 MHz Moreno Valley [CA] (US) 0.00 km UNKNOWN
LMS6CAAD7 LMS6 2021-02-03 23:15:00 35.1961 -118.575 219 ° 44 km/h 22099 m -15.7 m/s 402.512 MHz Tehachapi [CA] (US) 0.00 km UNKNOWN
LMS6B06B0 LMS6 2021-01-13 18:31:30 34.2793 -117.368 171 ° 39 km/h 7717 m -4.6 m/s 400.264 MHz Oak Hills [CA] (US) 0.00 km UNKNOWN
LMS6BA7C6 LMS6 2021-01-09 22:01:00 34.0839 -116.981 175 ° 70 km/h 3487 m -3.2 m/s 400.262 MHz Yucaipa [CA] (US) 0.00 km UNKNOWN
LMS6B7150 LMS6 2020-12-18 22:28:00 34.219 -117.235 159 ° 52 km/h 5916 m -3.4 m/s 400.257 MHz San Bernardino [CA] (US) 0.00 km UNKNOWN
LMS6BAA31 LMS6 2020-12-18 17:24:00 34.212 -117.41 150 ° 72 km/h 8963 m -4.6 m/s 400.261 MHz Muscoy [CA] (US) 0.00 km UNKNOWN
R1410543 RS41-SG 2020-12-15 01:48:30 34.5615 -116.575 161 ° 52 km/h 3616 m -13.2 m/s 405.001 MHz Big Bear City [CA] (US) 0.00 km UNKNOWN
LMS6BBA08 LMS6 2020-12-03 16:12:00 34.4497 -117.912 262 ° 50 km/h 21961 m -11.8 m/s 400.265 MHz Sun Village [CA] (US) 0.00 km UNKNOWN
S2450430 RS41-SGP 2020-11-13 04:36:00 34.7045 -116.325 71 ° 67 km/h 5182 m -15.3 m/s 403.001 MHz Yucca Valley [CA] (US) 0.00 km UNKNOWN
S2450490 RS41-SGP 2020-11-12 08:19:30 34.5558 -116.126 71 ° 72 km/h 4960 m -16.3 m/s 403.001 MHz Twentynine Palms [CA] (US) 0.00 km UNKNOWN
LMS6BFE6F LMS6 2020-10-30 21:41:31 35.031 -117.5 118 ° 9 km/h 9633 m -6.3 m/s 401.018 MHz California City [CA] (US) 0.00 km UNKNOWN
LMS6C005C LMS6 2020-10-30 17:26:00 35.0278 -117.55 335 ° 6 km/h 10199 m -4.6 m/s 400.262 MHz California City [CA] (US) 0.00 km UNKNOWN
S2450431 RS41 2020-10-20 04:41:00 34.2211 -116.709 126 ° 43 km/h 2896 m -16.0 m/s 403.001 MHz Big Bear City [CA] (US) 0.00 km UNKNOWN
LMS6BFEF0 LMS6 2020-10-15 19:51:00 34.7901 -117.943 76 ° 17 km/h 15151 m -8.7 m/s 400.263 MHz Lake Los Angeles [CA] (US) 0.00 km UNKNOWN
S2450504 RS41-SGP 2020-10-15 07:12:00 34.2142 -117.434 244 ° 7 km/h 7542 m -15.6 m/s 403.000 MHz Muscoy [CA] (US) 0.00 km UNKNOWN
S2430240 RS41 2020-10-14 05:00:30 34.1563 -117.387 174 ° 26 km/h 6326 m -19.8 m/s 403.000 MHz Muscoy [CA] (US) 0.00 km UNKNOWN
S2450472 RS41 2020-10-13 06:22:31 34.0989 -116.968 126 ° 11 km/h 3339 m -13.2 m/s 403.000 MHz Yucaipa [CA] (US) 0.00 km UNKNOWN
S2430252 RS41-SGP 2020-10-03 04:49:30 34.2268 -117.698 132 ° 56 km/h 14266 m -29.5 m/s 403.001 MHz Claremont [CA] (US) 0.00 km UNKNOWN
S2450471 RS41 2020-10-02 04:43:00 34.2431 -117.783 165 ° 22 km/h 16031 m -33.9 m/s 403.001 MHz Glendora [CA] (US) 0.00 km UNKNOWN
S2450409 RS41-SGP 2020-10-01 07:15:00 34.2993 -117.866 151 ° 20 km/h 15382 m -31.3 m/s 403.001 MHz Duarte [CA] (US) 0.00 km UNKNOWN
S2430248 RS41 2020-09-30 05:21:00 34.4649 -117.916 115 ° 9 km/h 13761 m -13.7 m/s 403.001 MHz Sun Village [CA] (US) 0.00 km UNKNOWN
S2430249 RS41 2020-09-29 05:00:30 34.3388 -117.985 269 ° 11 km/h 17604 m -9.7 m/s 403.001 MHz Monrovia [CA] (US) 0.00 km UNKNOWN
LMS6C0096 LMS6 2020-09-28 18:21:30 34.7308 -118.115 227 ° 57 km/h 15510 m -6.1 m/s 401.015 MHz Lancaster [CA] (US) 0.00 km UNKNOWN
LMS6BEA44 LMS6 2020-09-28 13:45:33 34.7007 -118.053 194 ° 78 km/h 13806 m -6.9 m/s 400.261 MHz Lancaster [CA] (US) 0.00 km UNKNOWN
R2320245 RS41-SGP 2020-06-20 06:41:54 34.1817 -117.862 157 ° 11 km/h 5905 m -11.4 m/s 403.000 MHz Glendora [CA] (US) 0.00 km UNKNOWN
R2310442 RS41-SGP 2020-06-19 07:21:24 34.0765 -117.708 117 ° 13 km/h 4115 m -6.9 m/s 403.000 MHz Montclair [CA] (US) 0.00 km UNKNOWN
R2320213 RS41-SGP 2020-05-28 06:37:28 34.2662 -117.567 85 ° 4 km/h 7212 m -7.1 m/s 405.000 MHz Rancho Cucamonga [CA] (US) 0.00 km UNKNOWN
R2310441 RS41-SGP 2020-05-22 06:11:37 34.3468 -116.996 89 ° 109 km/h 15042 m -35.4 m/s 403.000 MHz Big Bear City [CA] (US) 0.00 km UNKNOWN
R2320215 RS41 2020-04-29 05:59:47 34.2463 -117.478 87 ° 26 km/h 9650 m -9.8 m/s 405.000 MHz Muscoy [CA] (US) 0.00 km UNKNOWN
R0210130 RS41-SGP 2020-03-10 19:41:11 34.4334 -117.532 40 ° 185 km/h 10336 m -12.1 m/s 404.700 MHz Phelan [CA] (US) 0.00 km UNKNOWN